createdAt,value
2023-05-16T00:00:53.322Z,16.48
2023-05-16T00:03:20.419Z,16.00
2023-05-16T00:05:48.057Z,16.42
2023-05-16T00:08:14.471Z,16.63
2023-05-16T00:10:40.968Z,17.83
2023-05-16T00:13:07.424Z,15.85
2023-05-16T00:15:34.750Z,16.83
2023-05-16T00:18:01.313Z,19.27
2023-05-16T00:20:29.023Z,17.83
2023-05-16T00:22:56.144Z,17.67
2023-05-16T00:25:23.263Z,17.13
2023-05-16T00:27:49.718Z,17.20
2023-05-16T00:30:16.281Z,15.70
2023-05-16T00:32:43.119Z,16.60
2023-05-16T00:35:11.456Z,15.50
2023-05-16T00:37:39.009Z,17.58
2023-05-16T00:40:06.434Z,16.83
2023-05-16T00:42:33.045Z,15.13
2023-05-16T00:45:00.098Z,17.50
2023-05-16T00:47:26.712Z,15.40
2023-05-16T00:49:53.266Z,16.45
2023-05-16T00:52:19.800Z,16.63
2023-05-16T00:54:47.449Z,16.58
2023-05-16T00:57:13.868Z,15.73
2023-05-16T00:59:42.433Z,15.95
2023-05-16T01:02:09.141Z,15.75
2023-05-16T01:04:35.976Z,15.95
2023-05-16T01:07:02.636Z,16.30
2023-05-16T01:09:32.054Z,15.68
2023-05-16T01:12:08.211Z,15.67
2023-05-16T01:14:56.628Z,15.55
2023-05-16T01:17:38.006Z,15.50
2023-05-16T01:20:25.735Z,16.35
2023-05-16T01:23:05.669Z,16.83
2023-05-16T01:25:58.253Z,15.68
2023-05-16T01:28:26.010Z,20.75
2023-05-16T01:30:52.643Z,14.93
2023-05-16T01:33:19.136Z,15.18
2023-05-16T01:36:40.646Z,16.02
2023-05-16T01:39:41.659Z,16.02
2023-05-16T01:42:12.892Z,17.15
2023-05-16T01:45:08.751Z,26.02
2023-05-16T01:47:40.219Z,16.60
2023-05-16T01:50:20.506Z,19.60
2023-05-16T01:55:45.908Z,21.55
2023-05-16T01:58:15.294Z,17.88
2023-05-16T02:00:42.446Z,19.00
2023-05-16T02:03:09.621Z,19.08
2023-05-16T02:05:36.202Z,15.85
2023-05-16T02:08:03.078Z,19.13
2023-05-16T02:10:29.623Z,17.38
2023-05-16T02:12:56.288Z,16.05
2023-05-16T02:15:22.732Z,24.95
2023-05-16T02:17:49.809Z,16.67
2023-05-16T02:20:16.320Z,17.15
2023-05-16T02:22:44.133Z,19.23
2023-05-16T02:25:10.768Z,17.80
2023-05-16T02:27:37.307Z,18.90
2023-05-16T02:30:05.472Z,17.05
2023-05-16T02:32:33.877Z,15.60
2023-05-16T02:35:00.369Z,18.83
2023-05-16T02:37:26.940Z,21.83
2023-05-16T02:39:53.357Z,19.60
2023-05-16T02:42:19.898Z,19.42
2023-05-16T02:44:46.431Z,32.13
2023-05-16T02:47:12.851Z,22.25
2023-05-16T02:49:39.415Z,23.08
2023-05-16T02:52:07.408Z,21.35
2023-05-16T02:54:34.113Z,24.52
2023-05-16T02:57:00.810Z,23.38
2023-05-16T02:59:27.232Z,21.73
2023-05-16T03:01:53.952Z,18.75
2023-05-16T03:04:20.536Z,28.23
2023-05-16T03:06:47.067Z,20.45
2023-05-16T03:09:13.692Z,29.10
2023-05-16T03:11:40.125Z,26.90
2023-05-16T03:14:06.521Z,24.02
2023-05-16T03:16:32.978Z,24.60
2023-05-16T03:18:59.738Z,25.05
2023-05-16T03:21:26.353Z,24.65
2023-05-16T03:23:55.075Z,22.63
2023-05-16T03:26:22.802Z,26.65
2023-05-16T03:28:49.285Z,25.83
2023-05-16T03:31:16.197Z,19.73
2023-05-16T03:33:42.949Z,20.10
2023-05-16T03:36:09.830Z,23.60
2023-05-16T03:38:36.608Z,30.52
2023-05-16T03:41:03.199Z,22.55
2023-05-16T03:43:29.745Z,22.67
2023-05-16T03:45:56.278Z,28.25
2023-05-16T03:48:23.061Z,29.42
2023-05-16T03:50:49.587Z,26.48
2023-05-16T03:53:16.020Z,27.02
2023-05-16T03:55:42.538Z,21.92
2023-05-16T03:58:08.978Z,22.90
2023-05-16T04:00:36.692Z,29.95
2023-05-16T04:03:04.188Z,24.10
2023-05-16T04:05:30.987Z,27.95
2023-05-16T04:07:57.505Z,26.77
2023-05-16T04:10:24.901Z,32.17
2023-05-16T04:12:51.540Z,23.30
2023-05-16T04:15:17.982Z,23.10
2023-05-16T04:17:44.473Z,25.00
2023-05-16T04:20:11.687Z,25.27
2023-05-16T04:22:38.250Z,24.25
2023-05-16T04:25:04.966Z,27.40
2023-05-16T04:27:31.543Z,25.67
2023-05-16T04:29:59.297Z,29.50
2023-05-16T04:32:26.010Z,25.15
2023-05-16T04:34:54.200Z,27.83
2023-05-16T04:37:20.832Z,30.63
2023-05-16T04:39:47.602Z,25.25
2023-05-16T04:42:14.170Z,26.77
2023-05-16T04:44:40.961Z,26.92
2023-05-16T04:47:07.442Z,22.42
2023-05-16T04:49:33.887Z,17.48
2023-05-16T04:52:00.699Z,19.95
2023-05-16T04:54:27.255Z,25.80
2023-05-16T04:56:53.957Z,27.98
2023-05-16T04:59:21.204Z,15.10
2023-05-16T05:01:47.985Z,24.67
2023-05-16T05:04:14.417Z,23.48
2023-05-16T05:06:41.155Z,22.88
2023-05-16T05:09:07.860Z,24.10
2023-05-16T05:11:34.276Z,22.25
2023-05-16T05:14:01.128Z,25.85
2023-05-16T05:16:27.637Z,19.85
2023-05-16T05:18:54.254Z,23.20
2023-05-16T05:21:20.927Z,22.48
2023-05-16T05:23:50.539Z,20.58
2023-05-16T05:26:17.685Z,16.80
2023-05-16T05:28:53.801Z,29.27
2023-05-16T05:31:24.729Z,20.45
2023-05-16T05:33:51.237Z,24.52
2023-05-16T05:36:17.823Z,19.15
2023-05-16T05:38:44.367Z,19.98
2023-05-16T05:41:11.990Z,19.40
2023-05-16T05:43:38.642Z,14.82
2023-05-16T05:46:05.482Z,18.58
2023-05-16T05:48:32.932Z,24.70
2023-05-16T05:50:59.506Z,19.80
2023-05-16T05:53:25.998Z,19.02
2023-05-16T05:55:52.420Z,20.25
2023-05-16T05:58:18.898Z,19.92
2023-05-16T06:00:45.406Z,20.10
2023-05-16T06:03:11.922Z,17.33
2023-05-16T06:05:38.642Z,15.68
2023-05-16T06:08:05.182Z,17.48
2023-05-16T06:10:31.668Z,18.60
2023-05-16T06:12:58.049Z,21.55
2023-05-16T06:15:26.304Z,13.13
2023-05-16T06:17:52.962Z,17.15
2023-05-16T06:20:20.074Z,26.05
2023-05-16T06:22:46.555Z,16.02
2023-05-16T06:25:12.972Z,23.17
2023-05-16T06:27:39.468Z,20.92
2023-05-16T06:30:06.809Z,20.17
2023-05-16T06:32:33.404Z,21.38
2023-05-16T06:35:00.014Z,24.20
2023-05-16T06:37:26.630Z,17.40
2023-05-16T06:39:53.247Z,22.48
2023-05-16T06:42:20.552Z,25.08
2023-05-16T06:44:47.294Z,21.00
2023-05-16T06:47:13.871Z,22.15
2023-05-16T06:49:40.453Z,19.25
2023-05-16T06:52:06.929Z,23.95
2023-05-16T06:54:33.576Z,18.95
2023-05-16T06:57:00.028Z,30.13
2023-05-16T06:59:28.142Z,21.52
2023-05-16T07:01:54.912Z,19.80
2023-05-16T07:04:21.731Z,21.85
2023-05-16T07:06:48.231Z,24.20
2023-05-16T07:09:14.686Z,18.67
2023-05-16T07:11:41.373Z,18.48
2023-05-16T07:14:07.979Z,18.92
2023-05-16T07:16:34.573Z,17.85
2023-05-16T07:19:01.337Z,24.92
2023-05-16T07:21:28.060Z,15.15
2023-05-16T07:23:54.648Z,18.63
2023-05-16T07:26:23.239Z,23.80
2023-05-16T07:28:50.252Z,24.52
2023-05-16T07:31:17.332Z,22.50
2023-05-16T07:33:45.040Z,14.45
2023-05-16T07:36:16.870Z,14.82
2023-05-16T07:38:44.879Z,17.45
2023-05-16T07:41:11.583Z,13.38
2023-05-16T07:43:38.176Z,13.75
2023-05-16T07:46:05.760Z,20.65
2023-05-16T07:48:32.339Z,16.77
2023-05-16T07:50:58.873Z,18.58
2023-05-16T07:53:25.783Z,14.38
2023-05-16T07:55:52.367Z,11.80
2023-05-16T07:58:19.793Z,13.07
2023-05-16T08:00:46.241Z,16.15
2023-05-16T08:03:12.892Z,17.77
2023-05-16T08:05:40.250Z,17.00
2023-05-16T08:08:06.794Z,21.50
2023-05-16T08:10:33.427Z,15.82
2023-05-16T08:12:59.975Z,18.25
2023-05-16T08:15:28.051Z,19.70
2023-05-16T08:17:58.813Z,21.63
2023-05-16T08:20:26.224Z,19.92
2023-05-16T08:22:52.920Z,20.10
2023-05-16T08:25:19.685Z,15.85
2023-05-16T08:27:47.208Z,21.33
2023-05-16T08:30:14.392Z,22.08
2023-05-16T08:32:43.112Z,22.17
2023-05-16T08:35:11.039Z,18.50
2023-05-16T08:37:37.768Z,18.42
2023-05-16T08:40:08.293Z,17.98
2023-05-16T08:42:35.426Z,18.25
2023-05-16T08:45:02.543Z,22.98
2023-05-16T08:47:31.781Z,16.08
2023-05-16T08:49:59.100Z,16.60
2023-05-16T08:52:29.843Z,17.25
2023-05-16T08:55:12.571Z,22.63
2023-05-16T08:57:40.727Z,15.80
2023-05-16T09:00:12.303Z,20.00
2023-05-16T09:02:43.391Z,14.32
2023-05-16T09:05:13.020Z,21.35
2023-05-16T09:07:40.586Z,21.80
2023-05-16T09:10:08.473Z,17.90
2023-05-16T09:12:35.734Z,24.27
2023-05-16T09:15:03.810Z,29.58
2023-05-16T09:17:40.185Z,20.23
2023-05-16T09:20:19.430Z,22.10
2023-05-16T09:22:57.004Z,16.52
2023-05-16T09:25:30.375Z,17.70
2023-05-16T09:28:00.154Z,21.85
2023-05-16T09:30:31.863Z,19.20
2023-05-16T09:32:59.213Z,21.92
2023-05-16T09:37:56.780Z,15.88
2023-05-16T09:40:24.045Z,19.20
2023-05-16T09:43:07.902Z,15.98
2023-05-16T09:45:36.456Z,15.48
2023-05-16T09:48:09.297Z,21.48
2023-05-16T09:50:37.331Z,20.20
2023-05-16T09:53:04.728Z,18.50
2023-05-16T09:55:32.244Z,17.63
2023-05-16T09:57:58.788Z,19.33
2023-05-16T10:00:33.228Z,27.23
2023-05-16T10:03:04.819Z,19.38
2023-05-16T10:05:32.880Z,21.38
2023-05-16T10:08:02.379Z,19.80
2023-05-16T10:10:30.371Z,19.50
2023-05-16T10:13:01.539Z,21.33
2023-05-16T10:15:30.076Z,22.33
2023-05-16T10:18:00.006Z,22.15
2023-05-16T10:20:27.715Z,24.75
2023-05-16T10:22:56.884Z,18.45
2023-05-16T10:25:33.989Z,17.70
2023-05-16T10:28:01.058Z,17.98
2023-05-16T10:30:27.677Z,14.75
2023-05-16T10:32:56.401Z,21.65
2023-05-16T10:35:23.405Z,18.25
2023-05-16T10:37:51.098Z,23.20
2023-05-16T10:40:18.328Z,17.35
2023-05-16T10:42:56.066Z,14.80
2023-05-16T10:45:23.159Z,13.90
2023-05-16T10:47:56.801Z,20.52
2023-05-16T10:50:43.828Z,19.08
2023-05-16T10:53:14.470Z,20.48
2023-05-16T10:55:45.299Z,19.90
2023-05-16T10:58:11.808Z,21.65
2023-05-16T11:00:39.755Z,22.02
2023-05-16T11:03:10.067Z,23.00
2023-05-16T11:05:37.255Z,18.70
2023-05-16T11:08:06.403Z,18.15
2023-05-16T11:10:33.338Z,16.00
2023-05-16T11:13:07.233Z,17.05
2023-05-16T11:15:34.657Z,16.88
2023-05-16T11:18:09.559Z,16.63
2023-05-16T11:20:40.202Z,15.88
2023-05-16T11:23:18.871Z,15.10
2023-05-16T11:25:46.738Z,15.73
2023-05-16T11:28:14.472Z,23.63
2023-05-16T11:30:46.954Z,16.38
2023-05-16T11:33:13.630Z,15.43
2023-05-16T11:35:40.371Z,15.65
2023-05-16T11:38:06.851Z,14.52
2023-05-16T11:40:34.861Z,14.07
2023-05-16T11:43:06.499Z,17.15
2023-05-16T11:45:34.336Z,15.85
2023-05-16T11:48:04.531Z,15.85
2023-05-16T11:52:58.053Z,15.13
2023-05-16T11:55:41.839Z,14.88
2023-05-16T11:58:09.569Z,16.15
2023-05-16T12:00:36.442Z,17.25
2023-05-16T12:03:05.567Z,20.90
2023-05-16T12:05:34.048Z,19.73
2023-05-16T12:08:02.611Z,19.38
2023-05-16T12:10:31.657Z,14.00
2023-05-16T12:12:58.309Z,14.98
2023-05-16T12:15:25.069Z,14.65
2023-05-16T12:17:52.101Z,16.42
2023-05-16T12:20:19.138Z,14.65
2023-05-16T12:22:46.509Z,17.55
2023-05-16T12:25:31.908Z,13.35
2023-05-16T12:28:00.975Z,14.75
2023-05-16T12:30:29.811Z,14.98
2023-05-16T12:33:05.838Z,15.30
2023-05-16T12:35:35.316Z,14.98
2023-05-16T12:38:06.017Z,15.38
2023-05-16T12:40:32.633Z,15.73
2023-05-16T12:42:59.317Z,18.85
2023-05-16T12:45:27.989Z,18.30
2023-05-16T12:47:55.086Z,17.77
2023-05-16T12:50:23.025Z,13.35
2023-05-16T12:52:55.642Z,15.43
2023-05-16T12:55:22.978Z,15.63
2023-05-16T12:57:51.006Z,16.58
2023-05-16T13:00:19.915Z,19.90
2023-05-16T13:02:49.778Z,16.55
2023-05-16T13:05:17.478Z,17.60
2023-05-16T13:07:44.017Z,20.05
2023-05-16T13:10:11.851Z,13.27
2023-05-16T13:12:39.707Z,16.23
2023-05-16T13:15:07.834Z,13.27
2023-05-16T13:17:35.297Z,13.43
2023-05-16T13:20:02.744Z,17.10
2023-05-16T13:22:29.259Z,17.88
2023-05-16T13:24:55.860Z,17.67
2023-05-16T13:27:22.352Z,22.27
2023-05-16T13:29:48.763Z,14.45
2023-05-16T13:32:15.347Z,13.23
2023-05-16T13:34:41.904Z,13.88
2023-05-16T13:37:08.340Z,16.58
2023-05-16T13:39:34.805Z,14.50
2023-05-16T13:42:03.211Z,14.63
2023-05-16T13:44:29.743Z,13.98
2023-05-16T13:46:57.879Z,13.57
2023-05-16T13:49:24.550Z,14.48
2023-05-16T13:51:52.055Z,14.05
2023-05-16T13:54:19.325Z,14.98
2023-05-16T13:56:46.262Z,14.95
2023-05-16T13:59:16.827Z,16.27
2023-05-16T14:01:50.925Z,12.85
2023-05-16T14:04:17.556Z,14.73
2023-05-16T14:06:44.249Z,13.10
2023-05-16T14:09:11.012Z,13.88
2023-05-16T14:11:37.480Z,16.80
2023-05-16T14:14:04.023Z,19.30
2023-05-16T14:16:31.180Z,15.80
2023-05-16T14:18:57.808Z,15.48
2023-05-16T14:21:24.300Z,15.18
2023-05-16T14:23:51.110Z,15.05
2023-05-16T14:26:22.604Z,16.63
2023-05-16T14:28:49.179Z,17.50
2023-05-16T14:31:16.169Z,14.55
2023-05-16T14:33:43.810Z,13.00
2023-05-16T14:36:10.478Z,13.93
2023-05-16T14:38:36.961Z,15.18
2023-05-16T14:41:03.528Z,15.43
2023-05-16T14:43:30.000Z,16.50
2023-05-16T14:45:56.743Z,15.93
2023-05-16T14:48:23.475Z,15.10
2023-05-16T14:50:49.940Z,13.18
2023-05-16T14:53:16.534Z,14.07
2023-05-16T14:55:43.396Z,16.48
2023-05-16T14:58:09.957Z,20.80
2023-05-16T15:00:37.004Z,17.45
2023-05-16T15:03:06.803Z,18.02
2023-05-16T15:05:33.958Z,18.38
2023-05-16T15:08:00.445Z,16.45
2023-05-16T15:10:27.307Z,16.05
2023-05-16T15:12:54.183Z,15.02
2023-05-16T15:15:20.748Z,19.05
2023-05-16T15:17:47.585Z,19.80
2023-05-16T15:20:14.409Z,19.33
2023-05-16T15:22:41.489Z,20.13
2023-05-16T15:25:09.113Z,16.65
2023-05-16T15:27:35.588Z,17.13
2023-05-16T15:30:02.300Z,20.58
2023-05-16T15:32:28.833Z,16.60
2023-05-16T15:34:55.567Z,23.85
2023-05-16T15:37:22.052Z,25.58
2023-05-16T15:39:48.655Z,27.00
2023-05-16T15:42:15.115Z,23.00
2023-05-16T15:44:42.603Z,21.90
2023-05-16T15:47:10.293Z,20.77
2023-05-16T15:49:37.204Z,21.45
2023-05-16T15:52:04.534Z,15.52
2023-05-16T15:54:31.430Z,18.38
2023-05-16T15:56:58.055Z,17.90
2023-05-16T15:59:24.915Z,15.90
2023-05-16T16:01:51.489Z,17.70
2023-05-16T16:04:20.445Z,15.07
2023-05-16T16:09:15.633Z,14.57
2023-05-16T16:11:42.138Z,19.17
2023-05-16T16:14:11.197Z,17.25
2023-05-16T16:16:47.561Z,18.08
2023-05-16T16:19:14.013Z,14.70
2023-05-16T16:21:40.745Z,14.93
2023-05-16T16:24:07.319Z,14.10
2023-05-16T16:26:33.836Z,14.55
2023-05-16T16:29:00.482Z,16.70
2023-05-16T16:31:27.016Z,13.98
2023-05-16T16:33:54.705Z,13.85
2023-05-16T16:36:24.263Z,14.43
2023-05-16T16:38:50.830Z,14.45
2023-05-16T16:41:17.467Z,13.13
2023-05-16T16:43:43.979Z,14.07
2023-05-16T16:46:10.657Z,14.18
2023-05-16T16:48:37.882Z,13.75
2023-05-16T16:51:04.518Z,14.30
2023-05-16T16:53:32.439Z,14.73
2023-05-16T16:55:58.949Z,17.35
2023-05-16T16:58:25.447Z,16.85
2023-05-16T17:00:52.086Z,22.45
2023-05-16T17:03:18.850Z,35.25
2023-05-16T17:05:45.417Z,39.97
2023-05-16T17:08:12.178Z,37.90
2023-05-16T17:10:41.885Z,41.05
2023-05-16T17:13:10.444Z,40.72
2023-05-16T17:15:37.914Z,40.80
2023-05-16T17:18:08.461Z,39.10
2023-05-16T17:20:35.885Z,44.20
2023-05-16T17:23:03.076Z,40.05
2023-05-16T17:25:29.983Z,49.28
2023-05-16T17:27:56.764Z,42.65
2023-05-16T17:30:23.539Z,45.25
2023-05-16T17:32:50.188Z,49.75
2023-05-16T17:35:17.076Z,54.67
2023-05-16T17:37:43.631Z,45.17
2023-05-16T17:40:12.806Z,54.60
2023-05-16T17:42:39.549Z,53.83
2023-05-16T17:45:08.038Z,57.28
2023-05-16T17:47:35.048Z,59.08
2023-05-16T17:50:01.696Z,57.90
2023-05-16T17:52:28.323Z,59.92
2023-05-16T17:54:54.891Z,60.13
2023-05-16T17:57:21.371Z,53.92
2023-05-16T17:59:47.937Z,65.97
2023-05-16T18:02:16.240Z,54.95
2023-05-16T18:04:42.834Z,52.70
2023-05-16T18:07:09.263Z,57.30
2023-05-16T18:09:35.753Z,56.00
2023-05-16T18:12:02.362Z,59.53
2023-05-16T18:14:28.845Z,52.13
2023-05-16T18:16:55.424Z,57.45
2023-05-16T18:19:22.025Z,53.58
2023-05-16T18:21:48.521Z,54.13
2023-05-16T18:24:15.986Z,55.88
2023-05-16T18:26:46.782Z,55.13
2023-05-16T18:29:13.293Z,58.88
2023-05-16T18:31:42.294Z,52.75
2023-05-16T18:34:09.678Z,55.17
2023-05-16T18:36:36.415Z,59.00
2023-05-16T18:39:03.557Z,62.65
2023-05-16T18:41:30.101Z,63.38
2023-05-16T18:43:56.581Z,63.83
2023-05-16T18:46:23.090Z,52.55
2023-05-16T18:48:49.569Z,61.60
2023-05-16T18:51:16.730Z,57.40
2023-05-16T18:53:43.329Z,59.38
2023-05-16T18:56:09.819Z,48.42
2023-05-16T18:58:36.997Z,52.88
2023-05-16T19:01:04.149Z,53.97
2023-05-16T19:03:31.024Z,58.75
2023-05-16T19:05:58.099Z,58.00
2023-05-16T19:08:27.190Z,54.70
2023-05-16T19:10:57.878Z,53.85
2023-05-16T19:13:24.308Z,48.38
2023-05-16T19:15:57.055Z,49.85
2023-05-16T19:18:24.381Z,56.72
2023-05-16T19:20:51.014Z,48.17
2023-05-16T19:23:17.509Z,57.15
2023-05-16T19:25:47.784Z,53.25
2023-05-16T19:30:42.813Z,56.55
2023-05-16T19:33:10.197Z,61.80
2023-05-16T19:35:38.711Z,56.92
2023-05-16T19:38:05.370Z,56.70
2023-05-16T19:40:33.231Z,67.68
2023-05-16T19:42:59.931Z,51.58
2023-05-16T19:45:26.797Z,70.30
2023-05-16T19:47:53.573Z,61.30
2023-05-16T19:50:21.618Z,61.17
2023-05-16T19:52:48.133Z,58.58
2023-05-16T19:55:14.597Z,59.70
2023-05-16T19:57:41.418Z,61.20
2023-05-16T20:00:09.595Z,58.80
2023-05-16T20:02:36.242Z,53.17
2023-05-16T20:05:04.324Z,59.72
2023-05-16T20:07:30.927Z,52.22
2023-05-16T20:09:57.358Z,54.13
2023-05-16T20:12:23.801Z,60.70
2023-05-16T20:14:50.521Z,61.60
2023-05-16T20:17:17.104Z,49.65
2023-05-16T20:19:43.973Z,65.13
2023-05-16T20:22:10.733Z,57.15
2023-05-16T20:24:37.431Z,59.95
2023-05-16T20:27:04.175Z,59.63
2023-05-16T20:29:34.461Z,60.65
2023-05-16T20:34:27.917Z,59.17
2023-05-16T20:36:54.619Z,58.63
2023-05-16T20:39:21.052Z,56.75
2023-05-16T20:41:47.612Z,58.63
2023-05-16T20:44:15.295Z,55.95
2023-05-16T20:46:43.056Z,55.03
2023-05-16T20:49:09.664Z,52.80
2023-05-16T20:51:36.283Z,58.75
2023-05-16T20:54:02.829Z,64.45
2023-05-16T20:56:29.397Z,67.70
2023-05-16T20:58:55.861Z,65.00
2023-05-16T21:01:22.403Z,56.55
2023-05-16T21:03:48.984Z,53.35
2023-05-16T21:06:15.651Z,51.35
2023-05-16T21:08:42.163Z,58.03
2023-05-16T21:11:12.392Z,61.75
2023-05-16T21:16:05.847Z,56.38
2023-05-16T21:18:32.436Z,63.70
2023-05-16T21:21:04.751Z,66.78
2023-05-16T21:23:31.300Z,54.65
2023-05-16T21:25:57.801Z,66.22
2023-05-16T21:28:24.228Z,59.20
2023-05-16T21:30:50.937Z,64.88
2023-05-16T21:33:17.544Z,67.53
2023-05-16T21:35:44.016Z,59.00
2023-05-16T21:38:10.527Z,66.47
2023-05-16T21:40:36.979Z,69.70
2023-05-16T21:43:03.500Z,62.30
2023-05-16T21:45:30.311Z,74.53
2023-05-16T21:47:57.519Z,61.50
2023-05-16T21:50:24.113Z,70.00
2023-05-16T21:52:50.999Z,56.53
2023-05-16T21:55:17.623Z,65.05
2023-05-16T21:57:44.198Z,66.32
2023-05-16T22:00:11.443Z,65.72
2023-05-16T22:02:38.058Z,58.97
2023-05-16T22:05:05.204Z,67.32
2023-05-16T22:07:32.297Z,62.65
2023-05-16T22:09:59.559Z,66.25
2023-05-16T22:12:29.494Z,66.07
2023-05-16T22:14:56.266Z,77.22
2023-05-16T22:17:23.040Z,68.43
2023-05-16T22:19:49.761Z,65.38
2023-05-16T22:22:16.249Z,56.97
2023-05-16T22:24:42.786Z,59.50
2023-05-16T22:27:09.362Z,61.42
2023-05-16T22:29:38.324Z,73.45
2023-05-16T22:32:09.281Z,63.13
2023-05-16T22:34:39.743Z,60.70
2023-05-16T22:37:10.136Z,60.90
2023-05-16T22:42:03.597Z,50.33
2023-05-16T22:44:31.285Z,63.50
2023-05-16T22:46:57.951Z,64.68
2023-05-16T22:49:24.560Z,56.70
2023-05-16T22:51:53.852Z,59.25
2023-05-16T22:54:20.893Z,74.45
2023-05-16T22:56:47.355Z,72.00
2023-05-16T22:59:13.845Z,58.78
2023-05-16T23:01:40.570Z,66.47
2023-05-16T23:04:07.189Z,58.42
2023-05-16T23:06:33.777Z,63.58
2023-05-16T23:09:00.611Z,61.28
2023-05-16T23:11:27.040Z,61.25
2023-05-16T23:13:53.657Z,57.53
2023-05-16T23:16:20.145Z,59.80
2023-05-16T23:18:46.868Z,53.67
2023-05-16T23:21:13.455Z,63.88
2023-05-16T23:23:40.268Z,63.50
2023-05-16T23:26:06.806Z,46.40
2023-05-16T23:28:33.264Z,56.35
2023-05-16T23:30:59.904Z,50.78
2023-05-16T23:33:26.421Z,59.45
2023-05-16T23:35:53.178Z,54.10
2023-05-16T23:38:19.945Z,57.40
2023-05-16T23:40:46.454Z,46.50
2023-05-16T23:43:13.167Z,53.85
2023-05-16T23:45:39.783Z,53.78
2023-05-16T23:48:06.617Z,37.50
2023-05-16T23:50:33.145Z,45.85
2023-05-16T23:52:59.712Z,42.50
2023-05-16T23:55:26.301Z,42.55
2023-05-16T23:57:53.480Z,39.40
